This is the latest recevied weather packets stored in our database for station/object AA4XD. If no packets are shown the sender has not sent any weather packets the latest 10 day(s).
| Time | Temp. | Humidity | Pressure | Rain* | Wind** | Luminosity | Snow |
|---|---|---|---|---|---|---|---|
| 1777988997 | 26.67° C | 59% | 1015.4 hPa | 0 mm | - | 499 W/m² | - |
| 1777988693 | 26.11° C | 60% | 1015.7 hPa | 0 mm | - | 478 W/m² | - |
| 1777988389 | 25.56° C | 60% | 1015.7 hPa | 0 mm | - | 471 W/m² | - |
| 1777988087 | 25.56° C | 60% | 1015.5 hPa | 0 mm | - | 436 W/m² | - |
| 1777987783 | 25° C | 62% | 1015.5 hPa | 0 mm | - | 417 W/m² | - |
| 1777987479 | 25° C | 64% | 1015.5 hPa | 0 mm | - | 389 W/m² | - |
| 1777987178 | 23.89° C | 64% | 1015.4 hPa | 0 mm | - | 355 W/m² | - |
| 1777986874 | 23.89° C | 63% | 1015.3 hPa | 0 mm | - | 328 W/m² | - |
| 1777986572 | 23.89° C | 64% | 1015.4 hPa | 0 mm | - | 311 W/m² | - |
| 1777986270 | 23.33° C | 65% | 1015.4 hPa | 0 mm | - | 312 W/m² | - |
| 1777985967 | 23.33° C | 66% | 1015.4 hPa | 0 mm | - | 281 W/m² | - |
| 1777985664 | 22.78° C | 67% | 1015.4 hPa | 0 mm | - | 277 W/m² | - |
| 1777985361 | 22.78° C | 68% | 1015.3 hPa | 0 mm | - | 219 W/m² | - |
| 1777985058 | 22.78° C | 67% | 1015.5 hPa | 0 mm | - | 233 W/m² | - |
| 1777984754 | 22.22° C | 67% | 1015.2 hPa | 0 mm | - | 218 W/m² | - |
| 1777984451 | 22.22° C | 70% | 1015.4 hPa | 0 mm | - | 210 W/m² | - |
| 1777984146 | 21.67° C | 71% | 1015.4 hPa | 0 mm | - | 163 W/m² | - |
| 1777983844 | 21.11° C | 71% | 1015.4 hPa | 0 mm | - | 129 W/m² | - |
| 1777983540 | 21.67° C | 70% | 1015.3 hPa | 0 mm | - | 135 W/m² | - |
| 1777983237 | 21.11° C | 71% | 1015.2 hPa | 0 mm | - | 139 W/m² | - |
| 1777982933 | 20.56° C | 73% | 1015.1 hPa | 0 mm | - | 128 W/m² | - |
| 1777982629 | 19.44° C | 77% | 1014.9 hPa | 0 mm | - | 113 W/m² | - |
| 1777982328 | 17.78° C | 83% | 1015.3 hPa | 0 mm | - | 100 W/m² | - |
| 1777982026 | 16.67° C | 86% | 1015.1 hPa | 0 mm | - | 78 W/m² | - |
| 1777981723 | 16.11° C | 88% | 1015 hPa | 0 mm | - | 54 W/m² | - |
* Rain latest hour (hover to see other rain measurements)
** Current wind speed in m/s (hover to see current wind gust speed)